Avella, Pennsylvania
Current Conditions -  °F | °C
As of 5:53 AM on Friday 24 Oct 2014 (Local Time) from KHLG Reporting Station
Moderate Fog Moderate Fog  
Wind Chill:   Ceiling: 100
Heat Index:   Visibility: 0.25mi
Dew Point:   Wind: 0mph
Humidity: 97%   Direction: NA
Pressure: 30.1"   Gusts: NA
Location:  40.28°N, 80.46°W
Report Text: KHLG 240953Z AUTO 00000KT 1/4SM R03/1000V1600FT FG VV001 03/03 A3010 RMK AO2 SLP199 T00330028
Loading
Personal Weather Stations






























Interactive Weather Map
Tropical Storm Tracking
New forecast layout! Learn more

10-Day Weather Forecast

Advertisements
Track Severe Weather on mobile